Time;durP1;ratioP1;P1;durP2;ratioP2;P2;SDS_P1;SDS_P2;PMS_P1;PMS_P2;Temp;Humidity;BMP_temperature;BMP_pressure;BME280_temperature;BME280_humidity;BME280_pressure;Samples;Min_cycle;Max_cycle;Signal;HPM_P1;HPM_P2
2022/02/24 00:03:26;;;;;;;4.68;1.60;;;;;;;2.40;100.00;98771.72;10377428;28;20140;-62
2022/02/24 00:08:31;;;;;;;5.90;1.77;;;;;;;2.29;100.00;98765.31;10382598;28;20050;-61
2022/02/24 00:13:34;;;;;;;5.57;1.70;;;;;;;2.24;100.00;98762.09;10377701;28;20047;-60
2022/02/24 00:18:39;;;;;;;6.18;1.85;;;;;;;2.18;100.00;98761.63;10387400;28;20085;-60
2022/02/24 00:23:44;;;;;;;4.45;1.38;;;;;;;2.22;100.00;98757.84;10377683;28;20046;-61
2022/02/24 00:28:47;;;;;;;5.05;1.50;;;;;;;2.34;100.00;98746.41;10382667;28;20141;-61
2022/02/24 00:33:50;;;;;;;6.15;1.75;;;;;;;2.37;100.00;98742.66;10360758;28;20042;-62
2022/02/24 00:38:55;;;;;;;6.55;1.83;;;;;;;2.43;100.00;98745.78;10358721;28;20418;-62
2022/02/24 00:43:58;;;;;;;7.35;1.60;;;;;;;2.52;100.00;98732.84;10365607;28;20486;-62
2022/02/24 00:49:01;;;;;;;4.40;1.30;;;;;;;2.59;100.00;98731.47;10339964;28;20050;-61
2022/02/24 00:54:06;;;;;;;4.50;1.50;;;;;;;2.56;100.00;98718.38;10339000;28;20402;-61
2022/02/24 00:59:09;;;;;;;4.22;1.50;;;;;;;2.58;100.00;98713.81;10340212;28;20146;-61
2022/02/24 01:04:12;;;;;;;5.90;1.70;;;;;;;2.57;100.00;98701.47;10325112;28;20940;-62
2022/02/24 01:09:16;;;;;;;6.53;1.45;;;;;;;2.52;100.00;98698.28;10327687;28;20049;-62
2022/02/24 01:14:19;;;;;;;5.97;1.45;;;;;;;2.45;100.00;98679.22;10322171;28;20049;-62
2022/02/24 01:19:22;;;;;;;4.75;1.30;;;;;;;2.38;100.00;98668.13;10340120;28;20064;-62
2022/02/24 01:24:27;;;;;;;5.88;1.70;;;;;;;2.37;100.00;98666.44;10345209;28;20053;-62
2022/02/24 01:29:30;;;;;;;4.47;1.40;;;;;;;2.39;100.00;98650.34;10346660;28;20054;-62
2022/02/24 01:34:33;;;;;;;5.97;1.50;;;;;;;2.40;100.00;98634.31;10350046;28;20164;-61
2022/02/24 01:39:37;;;;;;;5.18;1.70;;;;;;;2.38;100.00;98628.25;10352319;28;20130;-61
2022/02/24 01:44:41;;;;;;;5.50;1.58;;;;;;;2.34;100.00;98618.78;10350685;28;20038;-59
2022/02/24 01:49:45;;;;;;;4.93;1.30;;;;;;;2.57;100.00;98626.97;10354795;28;20473;-61
2022/02/24 01:54:49;;;;;;;3.75;1.35;;;;;;;2.61;100.00;98610.69;10354819;28;20042;-61
2022/02/24 01:59:54;;;;;;;4.45;1.30;;;;;;;2.62;100.00;98600.94;10357195;28;20181;-61
2022/02/24 02:04:57;;;;;;;3.95;1.27;;;;;;;2.54;100.00;98585.50;10352299;28;20636;-59
2022/02/24 02:10:02;;;;;;;4.13;1.40;;;;;;;2.51;100.00;98571.56;10354225;28;20042;-61
2022/02/24 02:15:06;;;;;;;4.63;1.40;;;;;;;2.46;100.00;98563.91;10351712;28;20128;-63
2022/02/24 02:20:11;;;;;;;3.75;1.27;;;;;;;2.39;100.00;98558.16;10330602;28;20050;-63
2022/02/24 02:25:19;;;;;;;5.78;1.60;;;;;;;2.32;100.00;98546.22;10346284;28;20139;-62
2022/02/24 02:30:23;;;;;;;3.15;1.33;;;;;;;2.27;100.00;98549.22;10340248;28;20054;-62
2022/02/24 02:35:27;;;;;;;4.72;1.42;;;;;;;2.27;100.00;98538.56;10329614;28;20527;-62
2022/02/24 02:40:34;;;;;;;4.38;1.30;;;;;;;2.26;100.00;98518.25;10343082;28;20046;-64
2022/02/24 02:45:38;;;;;;;4.40;1.35;;;;;;;2.23;100.00;98514.97;10344481;28;20053;-64
2022/02/24 02:50:42;;;;;;;2.50;1.20;;;;;;;2.21;100.00;98498.28;10319891;28;21334;-64
2022/02/24 02:55:46;;;;;;;4.68;1.35;;;;;;;2.19;100.00;98494.88;10347610;28;20045;-63
2022/02/24 03:00:50;;;;;;;5.68;1.50;;;;;;;2.14;100.00;98485.44;10339741;28;20046;-62
2022/02/24 03:05:54;;;;;;;4.82;1.30;;;;;;;2.24;100.00;98482.97;10345383;28;20077;-62
2022/02/24 03:10:59;;;;;;;5.35;1.30;;;;;;;2.23;100.00;98473.31;10343738;28;20058;-64
2022/02/24 03:16:02;;;;;;;3.42;1.15;;;;;;;2.26;100.00;98461.59;10344088;28;20058;-61
2022/02/24 03:21:06;;;;;;;8.18;1.52;;;;;;;2.32;100.00;98461.16;10346714;28;20104;-60
2022/02/24 03:26:11;;;;;;;6.05;1.40;;;;;;;2.35;100.00;98465.44;10348837;28;20129;-63
2022/02/24 03:31:14;;;;;;;2.63;1.15;;;;;;;2.36;100.00;98446.69;10351110;28;20074;-62
2022/02/24 03:36:17;;;;;;;4.68;1.20;;;;;;;2.42;100.00;98435.63;10353617;28;20119;-62
2022/02/24 03:41:21;;;;;;;5.75;1.40;;;;;;;2.44;100.00;98431.03;10352007;28;20038;-64
2022/02/24 03:46:25;;;;;;;3.53;1.20;;;;;;;2.52;100.00;98419.84;10356228;28;20046;-62
2022/02/24 03:51:29;;;;;;;6.72;1.40;;;;;;;2.63;100.00;98421.75;10334397;28;20074;-64
2022/02/24 03:56:33;;;;;;;5.72;1.20;;;;;;;2.73;100.00;98409.47;10333010;28;20050;-61
2022/02/24 04:01:37;;;;;;;2.95;1.17;;;;;;;2.80;100.00;98407.22;10340160;28;20048;-63
2022/02/24 04:06:40;;;;;;;4.50;1.20;;;;;;;2.86;100.00;98395.28;10333879;28;20081;-63
2022/02/24 04:11:44;;;;;;;3.40;1.10;;;;;;;2.93;100.00;98392.06;10334786;28;20460;-58
2022/02/24 04:16:48;;;;;;;3.38;1.08;;;;;;;3.00;100.00;98375.63;10340932;28;20144;-63
2022/02/24 04:21:51;;;;;;;3.15;1.10;;;;;;;3.04;100.00;98367.28;10340056;28;20050;-62
2022/02/24 04:26:55;;;;;;;4.45;1.40;;;;;;;3.06;100.00;98386.66;10349734;28;20061;-61
2022/02/24 04:31:59;;;;;;;2.63;1.00;;;;;;;3.07;100.00;98384.84;10349602;28;20101;-63
2022/02/24 04:37:02;;;;;;;3.78;1.30;;;;;;;3.05;100.00;98384.13;10348220;28;20527;-63
2022/02/24 04:42:07;;;;;;;3.47;1.25;;;;;;;3.05;100.00;98374.31;10349374;28;20045;-64
2022/02/24 04:47:10;;;;;;;5.80;1.73;;;;;;;3.04;100.00;98367.28;10354426;28;20038;-63
2022/02/24 04:52:13;;;;;;;3.22;1.05;;;;;;;3.05;100.00;98371.66;10358615;28;20108;-62
2022/02/24 04:57:18;;;;;;;5.32;1.33;;;;;;;3.07;100.00;98358.22;10343429;28;20466;-64
2022/02/24 05:02:25;;;;;;;4.53;1.40;;;;;;;3.07;100.00;98355.56;10354369;28;20402;-63
2022/02/24 05:07:28;;;;;;;5.22;1.40;;;;;;;3.10;100.00;98339.38;10356853;28;20054;-62
2022/02/24 05:12:33;;;;;;;3.40;1.33;;;;;;;3.08;100.00;98328.84;10359522;28;20065;-62
2022/02/24 05:17:39;;;;;;;3.15;1.20;;;;;;;3.13;100.00;98335.63;10334252;28;20426;-60
2022/02/24 05:22:43;;;;;;;3.53;1.17;;;;;;;3.13;100.00;98330.28;10330964;28;20112;-64
2022/02/24 05:27:49;;;;;;;4.30;1.17;;;;;;;3.16;100.00;98330.06;10338732;28;20061;-63
2022/02/24 05:32:52;;;;;;;3.95;1.30;;;;;;;3.19;100.00;98324.50;10339648;28;20416;-64
2022/02/24 05:37:56;;;;;;;3.17;1.20;;;;;;;3.24;100.00;98331.19;10340314;28;20100;-64
2022/02/24 05:43:00;;;;;;;4.43;1.63;;;;;;;3.26;100.00;98331.06;10342937;28;20054;-64
2022/02/24 05:48:04;;;;;;;3.83;1.30;;;;;;;3.32;100.00;98322.63;10344406;28;20046;-63
2022/02/24 05:53:07;;;;;;;7.03;1.50;;;;;;;3.42;100.00;98324.56;10327563;28;20089;-64
2022/02/24 05:58:11;;;;;;;3.60;1.17;;;;;;;3.51;100.00;98305.19;10342789;28;20050;-59
2022/02/24 06:03:14;;;;;;;6.13;1.25;;;;;;;3.61;100.00;98308.00;10348897;28;20104;-64
2022/02/24 06:08:18;;;;;;;2.25;1.10;;;;;;;3.63;100.00;98304.25;10345372;28;20056;-58
2022/02/24 06:13:22;;;;;;;5.13;1.60;;;;;;;3.65;100.00;98296.97;10346949;28;20065;-61
2022/02/24 06:18:26;;;;;;;4.38;1.40;;;;;;;3.68;100.00;98303.88;10347521;28;20076;-62
2022/02/24 06:23:29;;;;;;;3.22;1.30;;;;;;;3.69;100.00;98305.56;10342475;28;20077;-60
2022/02/24 06:28:34;;;;;;;2.85;1.25;;;;;;;3.74;100.00;98303.41;10316765;28;20129;-61
2022/02/24 06:33:37;;;;;;;2.63;1.25;;;;;;;3.78;100.00;98304.00;10329370;28;20038;-64
2022/02/24 06:38:40;;;;;;;5.65;1.40;;;;;;;3.83;100.00;98309.81;10314151;28;20142;-60
2022/02/24 06:43:44;;;;;;;5.28;1.42;;;;;;;3.83;100.00;98299.16;10313111;28;20097;-65
2022/02/24 06:48:48;;;;;;;4.05;1.23;;;;;;;3.83;100.00;98296.47;10295776;28;20122;-66
2022/02/24 06:53:51;;;;;;;2.85;1.30;;;;;;;3.91;100.00;98280.75;10296947;28;20127;-65
2022/02/24 06:58:55;;;;;;;3.97;1.40;;;;;;;3.93;100.00;98276.16;10289378;28;20455;-64
2022/02/24 07:03:59;;;;;;;5.65;1.60;;;;;;;4.03;100.00;98272.75;10291079;28;20053;-65
2022/02/24 07:09:02;;;;;;;3.53;1.33;;;;;;;4.09;100.00;98262.44;10289977;28;20050;-67
2022/02/24 07:14:07;;;;;;;5.07;1.50;;;;;;;4.15;100.00;98264.59;10293013;28;20090;-66
2022/02/24 07:19:10;;;;;;;4.57;1.98;;;;;;;4.22;100.00;98264.94;10300005;28;20070;-62
2022/02/24 07:24:13;;;;;;;4.20;1.60;;;;;;;4.29;100.00;98263.47;10302169;28;20120;-64
2022/02/24 07:29:18;;;;;;;4.60;1.42;;;;;;;4.35;100.00;98261.28;10334782;28;20162;-62
2022/02/24 07:34:24;;;;;;;4.47;1.40;;;;;;;4.40;100.00;98264.41;10327882;28;20045;-62
2022/02/24 07:39:27;;;;;;;4.03;1.65;;;;;;;4.45;100.00;98252.41;10324173;28;20446;-65
2022/02/24 07:44:32;;;;;;;6.10;1.63;;;;;;;4.52;100.00;98251.88;10348729;28;20069;-61
2022/02/24 07:49:35;;;;;;;4.20;1.70;;;;;;;4.57;100.00;98250.53;10337800;28;20476;-63
2022/02/24 07:54:38;;;;;;;4.97;1.40;;;;;;;4.61;100.00;98235.09;10344672;28;20050;-66
2022/02/24 07:59:43;;;;;;;3.92;1.30;;;;;;;4.68;100.00;98238.09;10358533;28;20140;-66
2022/02/24 08:04:46;;;;;;;3.72;1.40;;;;;;;4.74;100.00;98237.59;10343703;28;20038;-64
2022/02/24 08:09:49;;;;;;;4.28;1.30;;;;;;;4.80;100.00;98218.38;10360855;28;20438;-63
2022/02/24 08:14:54;;;;;;;4.90;1.58;;;;;;;4.92;100.00;98224.53;10361041;28;20070;-65
2022/02/24 08:19:59;;;;;;;6.18;1.75;;;;;;;4.94;100.00;98210.06;10345525;28;20081;-65
2022/02/24 08:25:02;;;;;;;4.10;1.55;;;;;;;5.01;100.00;98207.72;10339030;28;20042;-65
2022/02/24 08:30:09;;;;;;;4.55;1.60;;;;;;;5.06;100.00;98200.16;10337155;28;20058;-65
2022/02/24 08:35:13;;;;;;;2.90;1.50;;;;;;;5.13;100.00;98189.78;10348541;28;20152;-64
2022/02/24 08:40:18;;;;;;;4.53;1.60;;;;;;;5.17;100.00;98185.88;10342832;28;20116;-63
2022/02/24 08:45:24;;;;;;;5.10;1.73;;;;;;;5.25;100.00;98179.88;10322113;28;20148;-65
2022/02/24 08:50:28;;;;;;;4.00;1.65;;;;;;;5.30;100.00;98177.63;10343350;28;20045;-64
2022/02/24 08:55:37;;;;;;;3.88;1.50;;;;;;;5.40;100.00;98167.88;10350538;28;20563;-63
2022/02/24 09:00:47;;;;;;;4.25;1.50;;;;;;;5.51;100.00;98164.22;10343997;28;20053;-63
2022/02/24 09:05:50;;;;;;;3.03;1.25;;;;;;;5.57;100.00;98157.50;10346744;28;20503;-63
2022/02/24 09:10:53;;;;;;;2.90;1.40;;;;;;;5.63;100.00;98156.97;10347772;28;20045;-62
2022/02/24 09:15:58;;;;;;;4.05;1.67;;;;;;;5.74;100.00;98153.31;10350439;28;20129;-64
2022/02/24 09:21:01;;;;;;;4.32;1.40;;;;;;;5.80;100.00;98139.41;10351797;28;20108;-62
2022/02/24 09:26:04;;;;;;;2.85;1.60;;;;;;;5.86;100.00;98133.50;10353194;28;20064;-63
2022/02/24 09:31:08;;;;;;;3.63;1.58;;;;;;;5.93;100.00;98119.59;10354660;28;20049;-64
2022/02/24 09:36:15;;;;;;;3.42;1.60;;;;;;;6.01;100.00;98106.41;10355022;28;20058;-64
2022/02/24 09:41:18;;;;;;;4.80;1.40;;;;;;;6.11;100.00;98093.88;10356176;28;20086;-64
2022/02/24 09:46:23;;;;;;;3.15;1.33;;;;;;;6.25;100.00;98097.94;10337353;28;20574;-64
2022/02/24 09:51:26;;;;;;;3.28;1.17;;;;;;;6.35;100.00;98094.44;10356729;28;20765;-66
2022/02/24 09:56:30;;;;;;;3.28;1.20;;;;;;;6.44;100.00;98086.38;10359235;28;20033;-64
2022/02/24 10:01:34;;;;;;;4.13;1.15;;;;;;;6.55;100.00;98076.50;10357593;28;20652;-63
2022/02/24 10:06:40;;;;;;;4.47;1.50;;;;;;;6.65;100.00;98061.25;10361431;28;20112;-64
2022/02/24 10:11:47;;;;;;;4.13;1.42;;;;;;;6.74;100.00;98049.69;10346279;28;20111;-64
2022/02/24 10:16:55;;;;;;;5.80;2.00;;;;;;;6.79;100.00;98041.22;10349984;28;20829;-64
2022/02/24 10:22:13;;;;;;;3.95;1.80;;;;;;;6.85;100.00;98035.25;10356614;28;20061;-64
2022/02/24 10:27:18;;;;;;;4.30;1.70;;;;;;;6.93;100.00;98037.19;10343997;28;20078;-63
2022/02/24 10:32:31;;;;;;;3.70;1.75;;;;;;;6.96;100.00;98026.19;10326098;28;20136;-64
2022/02/24 10:37:34;;;;;;;3.88;1.30;;;;;;;6.99;100.00;98008.97;10332529;28;20410;-67
2022/02/24 10:42:37;;;;;;;3.40;1.25;;;;;;;7.08;100.00;98003.59;10344719;28;20077;-64
2022/02/24 10:47:55;;;;;;;2.88;1.08;;;;;;;7.16;100.00;97994.81;10333321;28;20044;-64
2022/02/24 10:53:06;;;;;;;3.75;1.10;;;;;;;7.25;100.00;97990.34;10339966;28;20129;-64
2022/02/24 10:58:09;;;;;;;2.72;1.60;;;;;;;7.30;100.00;97979.19;10330181;28;20843;-64
2022/02/24 11:03:13;;;;;;;3.88;1.40;;;;;;;7.39;100.00;97972.94;10305340;28;20108;-64
2022/02/24 11:08:17;;;;;;;3.95;1.50;;;;;;;7.44;100.00;97953.72;10325438;28;20058;-64
2022/02/24 11:13:20;;;;;;;3.65;1.30;;;;;;;7.45;100.00;97945.50;10326996;28;20065;-64
2022/02/24 11:18:24;;;;;;;3.60;1.30;;;;;;;7.49;100.00;97932.63;10330390;28;20562;-64
2022/02/24 11:23:27;;;;;;;3.30;1.20;;;;;;;7.54;100.00;97928.50;10328190;28;20107;-63
2022/02/24 11:28:39;;;;;;;2.83;1.10;;;;;;;7.65;100.00;97914.03;10321725;28;20081;-64
2022/02/24 11:33:43;;;;;;;2.87;1.13;;;;;;;7.76;100.00;97871.88;10340333;28;20562;-64
2022/02/24 11:39:09;;;;;;;1.75;1.00;;;;;;;7.86;100.00;97867.25;10342513;28;20471;-64
2022/02/24 11:44:31;;;;;;;1.90;1.00;;;;;;;7.99;100.00;97827.44;10345315;28;20085;-64
2022/02/24 11:50:08;;;;;;;1.85;0.98;;;;;;;8.15;100.00;97834.72;10343564;28;20054;-64
2022/02/24 11:55:41;;;;;;;1.90;1.00;;;;;;;8.32;100.00;97827.56;10347890;28;20050;-65
2022/02/24 12:01:08;;;;;;;1.85;1.00;;;;;;;8.53;100.00;97817.47;10347717;28;20469;-64
2022/02/24 12:06:14;;;;;;;2.00;0.90;;;;;;;8.64;100.00;97812.59;10349865;28;20050;-63
2022/02/24 12:11:28;;;;;;;2.78;1.00;;;;;;;8.76;100.00;97797.03;10351443;28;20486;-63
2022/02/24 12:16:32;;;;;;;2.38;0.85;;;;;;;8.87;100.00;97795.88;10353024;28;20334;-63
2022/02/24 12:21:43;;;;;;;2.45;1.05;;;;;;;8.92;100.00;97780.09;10352947;28;20261;-64
2022/02/24 12:26:48;;;;;;;3.92;1.20;;;;;;;9.14;100.00;97767.00;10359426;28;20585;-63
2022/02/24 12:31:56;;;;;;;3.25;1.10;;;;;;;9.42;100.00;97755.91;10351678;28;20115;-62
2022/02/24 12:37:06;;;;;;;2.72;1.10;;;;;;;9.79;100.00;97734.78;10360009;28;20128;-60
2022/02/24 12:42:11;;;;;;;2.78;0.90;;;;;;;10.15;100.00;97723.53;10358066;28;20097;-62
2022/02/24 12:47:15;;;;;;;1.63;0.70;;;;;;;10.45;100.00;97707.63;10318396;28;20046;-65
2022/02/24 12:52:20;;;;;;;4.40;1.15;;;;;;;10.79;100.00;97688.31;10336274;28;20074;-63
2022/02/24 12:57:25;;;;;;;6.10;1.00;;;;;;;11.02;100.00;97668.59;10338122;28;20105;-62
2022/02/24 13:02:28;;;;;;;1.65;0.90;;;;;;;11.20;100.00;97657.47;10333206;28;20058;-64
2022/02/24 13:13:38;;;;;;;2.35;0.90;;;;;;;10.92;100.00;97636.53;10338888;28;20050;-62
2022/02/24 13:18:43;;;;;;;2.80;0.95;;;;;;;10.71;100.00;97642.59;10343637;28;20483;-63
2022/02/24 13:24:25;;;;;;;1.35;0.77;;;;;;;10.51;100.00;97633.34;10346779;28;20510;-63
2022/02/24 13:29:30;;;;;;;2.78;1.05;;;;;;;10.44;100.00;97623.28;10342862;28;20089;-61
2022/02/24 13:34:33;;;;;;;2.55;0.90;;;;;;;10.34;100.00;97625.34;10345531;28;20477;-64
2022/02/24 13:39:38;;;;;;;1.95;0.90;;;;;;;10.29;100.00;97622.38;10329247;28;20129;-63
2022/02/24 13:44:43;;;;;;;3.20;0.88;;;;;;;10.21;100.00;97633.19;10353587;28;20047;-64
2022/02/24 13:49:47;;;;;;;1.52;0.77;;;;;;;10.14;100.00;97609.69;10346914;28;20057;-61
2022/02/24 13:54:55;;;;;;;3.05;1.00;;;;;;;10.14;100.00;97603.44;10352872;28;20050;-63
2022/02/24 14:00:05;;;;;;;1.88;0.90;;;;;;;10.13;100.00;97580.22;10355392;28;20046;-65
2022/02/24 14:05:13;;;;;;;2.53;1.00;;;;;;;10.05;100.00;97578.47;10341588;28;20426;-63
2022/02/24 14:10:18;;;;;;;2.95;1.10;;;;;;;9.97;100.00;97582.03;10357287;28;20053;-65
2022/02/24 14:15:22;;;;;;;2.72;1.05;;;;;;;9.94;100.00;97552.78;10320564;28;20042;-63
2022/02/24 14:20:51;;;;;;;3.45;1.48;;;;;;;9.83;100.00;97531.69;10324413;28;20573;-63
2022/02/24 14:26:17;;;;;;;3.10;1.23;;;;;;;9.81;100.00;97520.25;10328496;28;20141;-60
2022/02/24 14:31:46;;;;;;;2.65;1.13;;;;;;;9.83;100.00;97511.00;10333791;28;20579;-65
2022/02/24 14:36:50;;;;;;;2.75;1.00;;;;;;;9.89;100.00;97530.13;10334123;28;20042;-64
2022/02/24 14:41:53;;;;;;;2.92;1.05;;;;;;;9.85;100.00;97525.09;10336181;28;20137;-62
2022/02/24 14:46:57;;;;;;;1.70;0.98;;;;;;;9.86;100.00;97520.56;10341111;28;20543;-64
2022/02/24 14:52:00;;;;;;;2.88;1.20;;;;;;;9.83;100.00;97513.69;10342823;28;20054;-65
2022/02/24 14:57:05;;;;;;;3.30;1.00;;;;;;;9.84;100.00;97509.97;10342369;28;20126;-65
2022/02/24 15:02:10;;;;;;;2.92;1.10;;;;;;;9.87;100.00;97492.66;10342971;28;20054;-64
2022/02/24 15:07:33;;;;;;;1.83;1.05;;;;;;;9.86;100.00;97481.03;10346913;28;20042;-60
2022/02/24 15:12:36;;;;;;;1.42;0.90;;;;;;;9.87;100.00;97469.28;10332389;28;20502;-63
2022/02/24 15:17:41;;;;;;;1.88;0.85;;;;;;;9.87;100.00;97473.84;10345437;28;20046;-62
2022/02/24 15:22:44;;;;;;;2.45;1.17;;;;;;;9.92;100.00;97475.97;10354269;28;20173;-62
2022/02/24 15:27:48;;;;;;;2.13;0.95;;;;;;;9.87;100.00;97480.03;10349629;28;20649;-63
2022/02/24 15:32:56;;;;;;;2.13;1.00;;;;;;;9.89;100.00;97476.31;10347443;28;20049;-62
2022/02/24 15:37:59;;;;;;;1.88;0.90;;;;;;;9.89;100.00;97458.31;10357971;28;20045;-62
2022/02/24 15:43:02;;;;;;;2.03;1.33;;;;;;;9.86;100.00;97458.69;10355951;28;20073;-62
2022/02/24 15:48:07;;;;;;;3.17;1.20;;;;;;;9.85;100.00;97460.53;10360092;28;20038;-60
2022/02/24 15:53:12;;;;;;;1.65;0.80;;;;;;;9.85;100.00;97449.78;10347679;28;20471;-61
2022/02/24 15:58:15;;;;;;;1.17;0.82;;;;;;;9.98;100.00;97432.19;10341016;28;20081;-65
2022/02/24 16:03:21;;;;;;;2.88;1.08;;;;;;;10.10;100.00;97429.91;10326883;28;20140;-64
2022/02/24 16:08:25;;;;;;;1.88;0.80;;;;;;;10.04;100.00;97423.41;10340526;28;20057;-64
2022/02/24 16:13:29;;;;;;;1.33;0.75;;;;;;;10.05;100.00;97422.38;10333647;28;20042;-63
2022/02/24 16:18:35;;;;;;;1.27;0.70;;;;;;;10.16;100.00;97423.78;10327737;28;20169;-66
2022/02/24 16:23:40;;;;;;;1.63;0.75;;;;;;;10.07;100.00;97414.13;10342454;28;20474;-66
2022/02/24 16:28:43;;;;;;;1.27;0.73;;;;;;;10.00;100.00;97395.19;10340279;28;20173;-65
2022/02/24 16:34:37;;;;;;;1.17;0.73;;;;;;;9.89;100.00;97409.06;10344762;28;20128;-66
2022/02/24 16:39:43;;;;;;;2.15;0.82;;;;;;;9.90;100.00;97408.06;10342922;28;20488;-66
2022/02/24 16:44:56;;;;;;;1.60;0.80;;;;;;;9.87;100.00;97404.72;10343426;28;20069;-64
2022/02/24 16:50:00;;;;;;;1.88;0.90;;;;;;;9.89;100.00;97395.63;10342626;28;20073;-64
2022/02/24 16:55:05;;;;;;;2.30;0.70;;;;;;;9.85;100.00;97412.13;10348441;28;20038;-59
2022/02/24 17:00:11;;;;;;;1.50;0.70;;;;;;;9.87;100.00;97407.41;10345402;28;20117;-65
2022/02/24 17:05:17;;;;;;;2.08;0.80;;;;;;;9.90;100.00;97389.22;10329982;28;20111;-64
2022/02/24 17:10:21;;;;;;;1.17;0.70;;;;;;;9.86;100.00;97421.03;10348962;28;20581;-61
2022/02/24 17:15:24;;;;;;;1.63;0.70;;;;;;;9.75;100.00;97437.63;10355137;28;20503;-63
2022/02/24 17:20:28;;;;;;;2.40;0.80;;;;;;;9.30;100.00;97497.38;10354615;28;20121;-65
2022/02/24 17:25:37;;;;;;;1.98;0.80;;;;;;;8.58;100.00;97458.88;10354869;28;20853;-63
2022/02/24 17:30:40;;;;;;;1.75;0.68;;;;;;;8.32;100.00;97459.09;10352745;28;20134;-64
2022/02/24 17:35:43;;;;;;;2.08;0.80;;;;;;;8.11;100.00;97467.66;10358712;28;20499;-63
2022/02/24 17:40:48;;;;;;;1.27;0.80;;;;;;;7.99;100.00;97461.81;10353552;28;20778;-65
2022/02/24 17:45:51;;;;;;;1.40;0.77;;;;;;;8.03;100.00;97455.09;10344116;28;20046;-62
2022/02/24 17:50:54;;;;;;;1.10;0.80;;;;;;;7.92;100.00;97455.44;10306529;28;20050;-63
2022/02/24 17:55:59;;;;;;;1.33;0.80;;;;;;;7.95;100.00;97441.69;10331400;28;20096;-65
2022/02/24 18:01:02;;;;;;;1.20;0.73;;;;;;;7.99;100.00;97438.50;10327562;28;20129;-64
2022/02/24 18:06:05;;;;;;;1.08;0.75;;;;;;;7.99;100.00;97424.28;10327100;28;20471;-64
2022/02/24 18:11:10;;;;;;;1.13;0.70;;;;;;;7.93;100.00;97422.25;10343833;28;20085;-65
2022/02/24 18:16:13;;;;;;;1.52;0.77;;;;;;;8.05;100.00;97442.34;10345903;28;20054;-64
2022/02/24 18:21:17;;;;;;;1.63;0.90;;;;;;;8.07;100.00;97436.81;10345275;28;20052;-63
2022/02/24 18:26:21;;;;;;;1.95;0.80;;;;;;;8.06;100.00;97435.13;10341685;28;20081;-63
2022/02/24 18:31:24;;;;;;;0.90;0.50;;;;;;;8.01;100.00;97433.81;10343232;28;20041;-61
2022/02/24 18:36:28;;;;;;;1.20;0.77;;;;;;;8.07;100.00;97442.19;10340397;28;20042;-60
2022/02/24 18:41:32;;;;;;;1.88;0.68;;;;;;;8.08;100.00;97446.53;10342532;28;20052;-63
2022/02/24 18:46:40;;;;;;;1.33;0.70;;;;;;;8.16;100.00;97442.00;10344794;28;20132;-61
2022/02/24 18:51:44;;;;;;;1.33;0.80;;;;;;;8.31;100.00;97430.59;10341852;28;20045;-62
2022/02/24 18:56:48;;;;;;;0.68;0.60;;;;;;;8.29;100.00;97421.84;10333819;28;20314;-65
2022/02/24 19:01:52;;;;;;;1.60;0.70;;;;;;;8.33;100.00;97432.06;10343001;28;20038;-63
2022/02/24 19:06:55;;;;;;;1.60;0.60;;;;;;;8.35;100.00;97428.38;10358713;28;20038;-63
2022/02/24 19:12:20;;;;;;;1.52;0.80;;;;;;;8.33;100.00;97452.72;10361965;28;20215;-67
2022/02/24 19:17:23;;;;;;;1.13;0.77;;;;;;;8.33;100.00;97468.81;10346714;28;20042;-63
2022/02/24 19:22:26;;;;;;;2.60;0.60;;;;;;;8.41;100.00;97436.59;10355237;28;20069;-61
2022/02/24 19:27:31;;;;;;;1.13;0.55;;;;;;;8.44;100.00;97456.88;10343387;28;20477;-61
2022/02/24 19:32:34;;;;;;;1.10;0.70;;;;;;;8.53;100.00;97471.97;10365931;28;20057;-65
2022/02/24 19:37:37;;;;;;;1.73;0.70;;;;;;;8.46;100.00;97468.28;10363286;28;20061;-66
2022/02/24 19:42:43;;;;;;;0.52;0.50;;;;;;;8.41;100.00;97514.44;10369255;28;20124;-66
2022/02/24 19:47:46;;;;;;;0.50;0.10;;;;;;;4.49;100.00;97676.81;10371587;28;20124;-67
2022/02/24 19:52:49;;;;;;;1.20;0.20;;;;;;;2.61;100.00;97727.72;10353620;28;20088;-68
2022/02/24 19:57:54;;;;;;;0.10;0.10;;;;;;;2.52;100.00;97740.94;10359812;28;20127;-64
2022/02/24 20:02:57;;;;;;;0.43;0.30;;;;;;;2.58;100.00;97754.59;10372598;28;20160;-64
2022/02/24 20:08:03;;;;;;;0.22;0.20;;;;;;;2.75;100.00;97742.53;10370050;28;20124;-65
2022/02/24 20:13:08;;;;;;;0.30;0.30;;;;;;;2.80;100.00;97778.53;10377271;28;20117;-65
2022/02/24 20:18:12;;;;;;;0.52;0.20;;;;;;;2.74;100.00;97759.47;10355086;28;20418;-63
2022/02/24 20:23:16;;;;;;;0.50;0.22;;;;;;;2.68;100.00;97775.91;10372285;28;20125;-64
2022/02/24 20:28:23;;;;;;;0.30;0.30;;;;;;;2.66;100.00;97785.00;10365060;28;20046;-63
2022/02/24 20:33:27;;;;;;;0.95;0.30;;;;;;;2.70;100.00;97802.41;10362163;28;20476;-65
2022/02/24 20:38:30;;;;;;;0.32;0.25;;;;;;;2.93;100.00;97795.16;10340791;28;20481;-63
2022/02/24 20:43:37;;;;;;;0.10;0.10;;;;;;;2.88;100.00;97787.56;10361058;28;20124;-65
2022/02/24 20:48:42;;;;;;;0.30;0.20;;;;;;;2.86;100.00;97825.91;10361444;28;20034;-65
2022/02/24 20:53:45;;;;;;;0.30;0.30;;;;;;;2.87;100.00;97846.22;10346639;28;20137;-66
2022/02/24 20:58:49;;;;;;;0.20;0.20;;;;;;;2.86;100.00;97871.13;10346137;28;20082;-67
2022/02/24 21:03:52;;;;;;;0.60;0.40;;;;;;;2.78;100.00;97861.97;10352889;28;20566;-64
2022/02/24 21:08:56;;;;;;;0.30;0.30;;;;;;;2.71;100.00;97857.25;10352938;28;20053;-65
2022/02/24 21:14:00;;;;;;;0.50;0.22;;;;;;;2.63;100.00;97841.97;10353580;28;20046;-65
2022/02/24 21:19:03;;;;;;;0.30;0.30;;;;;;;2.59;100.00;97845.81;10353196;28;20077;-65
2022/02/24 21:24:07;;;;;;;0.20;0.20;;;;;;;2.56;100.00;97870.00;10359798;28;20565;-63
2022/02/24 21:29:12;;;;;;;0.38;0.20;;;;;;;2.55;100.00;97894.91;10356540;28;20483;-64
2022/02/24 21:34:15;;;;;;;0.90;0.20;;;;;;;2.44;100.00;97891.28;10362278;28;20085;-66
2022/02/24 21:39:18;;;;;;;0.20;0.20;;;;;;;2.39;100.00;97882.84;10348925;28;20062;-66
2022/02/24 21:44:23;;;;;;;0.20;0.20;;;;;;;2.36;100.00;97882.22;10328076;28;20096;-68
2022/02/24 21:49:27;;;;;;;0.20;0.20;;;;;;;2.34;100.00;97884.19;10335427;28;20057;-66
2022/02/24 21:54:30;;;;;;;0.20;0.20;;;;;;;2.31;100.00;97871.97;10312157;28;20058;-67
2022/02/24 21:59:35;;;;;;;0.35;0.20;;;;;;;2.31;100.00;97879.94;10335771;28;20068;-67
2022/02/24 22:04:38;;;;;;;1.25;0.20;;;;;;;2.33;100.00;97895.78;10344723;28;20078;-68
2022/02/24 22:09:41;;;;;;;0.73;0.30;;;;;;;2.30;100.00;97888.88;10336684;28;20504;-67
2022/02/24 22:15:06;;;;;;;0.43;0.20;;;;;;;2.27;100.00;97919.22;10334866;28;20050;-67
2022/02/24 22:20:11;;;;;;;0.65;0.35;;;;;;;2.23;100.00;97943.50;10337016;28;20428;-66
2022/02/24 22:25:14;;;;;;;0.80;0.47;;;;;;;2.23;100.00;97930.22;10340320;28;20156;-66
2022/02/24 22:30:18;;;;;;;0.70;0.50;;;;;;;2.27;100.00;97958.25;10340936;28;20069;-66
2022/02/24 22:35:21;;;;;;;0.98;0.50;;;;;;;2.26;100.00;97969.84;10341661;28;20506;-66
2022/02/24 22:40:25;;;;;;;0.40;0.30;;;;;;;2.27;100.00;97969.72;10341004;28;20069;-66
2022/02/24 22:45:29;;;;;;;1.27;0.40;;;;;;;2.25;100.00;97961.00;10347767;28;20116;-65
2022/02/24 22:50:32;;;;;;;0.40;0.40;;;;;;;2.24;100.00;97956.66;10345594;28;20045;-65
2022/02/24 22:55:35;;;;;;;1.45;0.43;;;;;;;2.23;100.00;97946.16;10348353;28;20136;-65
2022/02/24 23:01:11;;;;;;;0.90;0.50;;;;;;;2.14;100.00;97975.16;10347335;28;20092;-65
2022/02/24 23:06:16;;;;;;;0.30;0.30;;;;;;;2.12;100.00;98001.00;10347081;28;20055;-66
2022/02/24 23:11:19;;;;;;;0.57;0.40;;;;;;;2.11;100.00;97996.66;10342901;28;20084;-67
2022/02/24 23:16:22;;;;;;;1.50;0.40;;;;;;;2.17;100.00;97999.81;10353653;28;20065;-65
2022/02/24 23:21:27;;;;;;;0.75;0.47;;;;;;;2.05;100.00;98023.72;10351245;28;20558;-66
2022/02/24 23:26:30;;;;;;;0.77;0.50;;;;;;;2.05;100.00;98029.03;10362520;28;20519;-66
2022/02/24 23:31:33;;;;;;;0.45;0.45;;;;;;;2.04;100.00;98032.63;10360425;28;20041;-66
2022/02/24 23:37:04;;;;;;;1.52;0.60;;;;;;;2.10;100.00;98034.81;10373423;28;20050;-66
2022/02/24 23:42:07;;;;;;;1.00;0.57;;;;;;;2.09;100.00;98034.94;10370046;28;20053;-66
2022/02/24 23:47:11;;;;;;;0.95;0.60;;;;;;;2.06;100.00;98057.25;10346521;28;20049;-65